Time;durP1;ratioP1;P1;durP2;ratioP2;P2;SDS_P1;SDS_P2;PMS_P1;PMS_P2;Temp;Humidity;BMP_temperature;BMP_pressure;BME280_temperature;BME280_humidity;BME280_pressure;Samples;Min_cycle;Max_cycle;Signal;HPM_P1;HPM_P2
2021/11/15 00:00:44;;;;;;;36.28;18.95;;;;;;;6.88;47.06;94396.28;5002308;28;20026;-74
2021/11/15 00:03:12;;;;;;;33.85;19.45;;;;;;;6.90;47.15;94404.75;5019616;28;20308;-76
2021/11/15 00:05:37;;;;;;;35.95;20.38;;;;;;;6.75;47.27;94395.81;5021131;28;20038;-76
2021/11/15 00:08:03;;;;;;;34.30;18.48;;;;;;;6.78;47.25;94399.78;5006322;28;20852;-77
2021/11/15 00:10:29;;;;;;;44.00;19.95;;;;;;;6.73;47.56;94387.41;5001305;28;20104;-75
2021/11/15 00:12:54;;;;;;;48.83;21.70;;;;;;;6.68;47.29;94371.56;5005550;28;20604;-76
2021/11/15 00:15:22;;;;;;;44.25;22.60;;;;;;;6.79;47.33;94394.25;5003302;28;20485;-75
2021/11/15 00:17:48;;;;;;;39.20;23.73;;;;;;;6.78;47.41;94400.59;5003140;28;20047;-73
2021/11/15 00:20:14;;;;;;;36.17;20.92;;;;;;;6.56;47.36;94379.03;5007992;28;20068;-75
2021/11/15 00:22:40;;;;;;;49.42;22.25;;;;;;;6.72;47.49;94404.31;5005321;28;20373;-76
2021/11/15 00:25:06;;;;;;;33.90;21.17;;;;;;;6.73;47.56;94411.19;5003813;28;20045;-75
2021/11/15 00:27:32;;;;;;;49.67;22.85;;;;;;;6.55;47.47;94372.19;5005146;28;20136;-75
2021/11/15 00:29:59;;;;;;;37.72;20.30;;;;;;;6.69;47.48;94404.09;4995238;28;20459;-75
2021/11/15 00:32:28;;;;;;;44.53;20.02;;;;;;;6.75;47.44;94411.69;5005259;28;20384;-76
2021/11/15 00:34:54;;;;;;;36.63;20.25;;;;;;;6.61;47.36;94392.22;5005164;28;20034;-75
2021/11/15 00:37:20;;;;;;;35.83;18.95;;;;;;;6.62;47.26;94385.09;5005356;28;20025;-76
2021/11/15 00:39:46;;;;;;;32.28;18.67;;;;;;;6.72;47.20;94408.81;5006356;28;20432;-72
2021/11/15 00:42:12;;;;;;;36.83;20.45;;;;;;;6.54;47.42;94386.47;5002745;28;20812;-74
2021/11/15 00:44:37;;;;;;;40.58;19.23;;;;;;;6.65;47.46;94414.41;5002798;28;20400;-75
2021/11/15 00:47:03;;;;;;;36.00;19.63;;;;;;;6.52;47.55;94387.78;5008526;28;20041;-75
2021/11/15 00:49:29;;;;;;;39.42;19.40;;;;;;;6.62;47.52;94404.38;5000756;28;20038;-75
2021/11/15 00:51:54;;;;;;;40.05;21.73;;;;;;;6.54;47.74;94407.59;5006138;28;20036;-76
2021/11/15 00:54:20;;;;;;;51.47;22.13;;;;;;;6.52;47.97;94414.22;5003403;28;20603;-76
2021/11/15 00:56:45;;;;;;;40.35;20.95;;;;;;;6.52;47.95;94420.28;5000767;28;20103;-75
2021/11/15 00:59:10;;;;;;;40.28;20.83;;;;;;;6.36;48.14;94397.66;5004171;28;20140;-76
2021/11/15 01:01:36;;;;;;;39.05;21.15;;;;;;;6.38;48.00;94391.03;5006530;28;20033;-76
2021/11/15 01:04:02;;;;;;;45.58;22.48;;;;;;;6.40;48.22;94412.72;5005197;28;20079;-76
2021/11/15 01:06:27;;;;;;;46.10;21.15;;;;;;;6.35;48.19;94406.66;5003875;28;20038;-75
2021/11/15 01:08:53;;;;;;;39.60;19.63;;;;;;;6.39;48.15;94405.03;5001810;28;20048;-76
2021/11/15 01:11:18;;;;;;;40.70;21.02;;;;;;;6.36;48.10;94402.97;5004409;28;20095;-75
2021/11/15 01:13:44;;;;;;;46.85;24.05;;;;;;;6.34;48.37;94397.94;5001798;28;20548;-76
2021/11/15 01:16:10;;;;;;;40.78;22.08;;;;;;;6.29;48.56;94381.31;5003243;28;20329;-75
2021/11/15 01:18:41;;;;;;;41.15;22.45;;;;;;;6.27;48.35;94389.50;5004037;28;20064;-76
2021/11/15 01:21:08;;;;;;;44.88;22.58;;;;;;;6.23;48.19;94379.75;5000437;28;20728;-76
2021/11/15 01:23:33;;;;;;;40.65;22.00;;;;;;;6.42;48.37;94405.28;5004810;28;20071;-79
2021/11/15 01:25:59;;;;;;;46.47;21.65;;;;;;;6.37;48.03;94404.50;5000858;28;20057;-77
2021/11/15 01:28:24;;;;;;;44.42;22.02;;;;;;;6.39;48.28;94405.03;5004699;28;20472;-75
2021/11/15 01:30:50;;;;;;;41.33;20.55;;;;;;;6.32;48.06;94388.69;5000740;28;20312;-77
2021/11/15 01:33:15;;;;;;;40.88;20.30;;;;;;;6.30;47.89;94390.81;5005557;28;20406;-77
2021/11/15 01:35:41;;;;;;;43.78;21.15;;;;;;;6.40;48.11;94401.34;5004609;28;20587;-75
2021/11/15 01:38:06;;;;;;;46.70;22.38;;;;;;;6.19;48.25;94371.59;5002568;28;20555;-76
2021/11/15 01:40:33;;;;;;;42.67;21.88;;;;;;;6.56;48.14;94396.75;5001629;28;20562;-75
2021/11/15 01:43:00;;;;;;;38.97;20.20;;;;;;;6.48;48.27;94386.75;5005184;28;20025;-75
2021/11/15 01:45:27;;;;;;;37.67;18.60;;;;;;;6.37;48.30;94396.59;5001681;28;20433;-75
2021/11/15 01:47:56;;;;;;;43.15;20.30;;;;;;;6.36;48.06;94408.25;5001223;28;20029;-76
2021/11/15 01:50:23;;;;;;;35.75;18.67;;;;;;;6.28;47.94;94392.94;5003432;28;20034;-75
2021/11/15 01:52:49;;;;;;;34.17;18.65;;;;;;;6.34;47.79;94389.22;5003184;28;20128;-75
2021/11/15 01:55:17;;;;;;;37.90;19.08;;;;;;;6.33;47.84;94400.84;5004449;28;20042;-76
2021/11/15 01:57:43;;;;;;;31.60;17.85;;;;;;;6.36;47.77;94395.03;5001627;28;20034;-76
2021/11/15 02:00:16;;;;;;;34.83;17.80;;;;;;;6.22;47.73;94389.53;5001487;28;20037;-76
2021/11/15 02:02:43;;;;;;;37.17;18.73;;;;;;;6.18;47.81;94372.66;4999965;28;20041;-76
2021/11/15 02:05:09;;;;;;;38.92;19.80;;;;;;;5.98;48.20;94362.94;5002091;28;20045;-76
2021/11/15 02:07:35;;;;;;;37.25;19.30;;;;;;;6.23;48.18;94403.53;5004032;28;20029;-76
2021/11/15 02:10:03;;;;;;;40.40;20.83;;;;;;;6.41;47.92;94397.63;4998993;28;20091;-72
2021/11/15 02:12:28;;;;;;;42.63;22.40;;;;;;;6.30;48.19;94386.34;5000794;28;20049;-76
2021/11/15 02:14:54;;;;;;;40.85;21.77;;;;;;;6.31;48.69;94392.41;5005613;28;20042;-76
2021/11/15 02:17:20;;;;;;;45.17;22.80;;;;;;;6.31;48.92;94392.41;5001369;28;20049;-75
2021/11/15 02:19:47;;;;;;;42.67;22.48;;;;;;;6.36;48.55;94384.47;5000084;28;20829;-75
2021/11/15 02:22:12;;;;;;;51.13;24.63;;;;;;;6.33;48.44;94391.06;5003648;28;20395;-76
2021/11/15 02:24:38;;;;;;;41.75;23.00;;;;;;;6.21;48.66;94368.69;4999938;28;20037;-76
2021/11/15 02:27:04;;;;;;;41.03;22.98;;;;;;;6.20;48.98;94388.22;5001478;28;20045;-77
2021/11/15 02:29:30;;;;;;;45.70;22.13;;;;;;;6.14;48.46;94370.78;4999473;28;20044;-75
2021/11/15 02:31:55;;;;;;;32.17;17.13;;;;;;;6.39;48.16;94395.25;5004293;28;20041;-76
2021/11/15 02:34:20;;;;;;;32.35;16.42;;;;;;;6.37;48.49;94380.72;4999598;28;20040;-75
2021/11/15 02:36:46;;;;;;;33.78;15.93;;;;;;;6.17;48.28;94357.84;5002627;28;20399;-76
2021/11/15 02:39:11;;;;;;;31.33;14.55;;;;;;;6.32;48.26;94381.56;4999983;28;20033;-76
2021/11/15 02:41:37;;;;;;;24.40;13.90;;;;;;;6.32;48.33;94375.47;5004447;28;20034;-77
2021/11/15 02:44:07;;;;;;;21.38;12.00;;;;;;;6.25;48.36;94385.56;4999515;28;20041;-73
2021/11/15 02:46:34;;;;;;;27.35;12.48;;;;;;;6.17;48.43;94376.34;5002746;28;20183;-76
2021/11/15 02:49:01;;;;;;;24.42;12.30;;;;;;;6.18;48.61;94388.50;5004681;28;20476;-76
2021/11/15 02:51:27;;;;;;;27.98;13.98;;;;;;;6.18;48.62;94392.97;4995419;28;20075;-76
2021/11/15 02:53:52;;;;;;;25.30;13.23;;;;;;;6.13;48.46;94400.91;5006504;28;20144;-76
2021/11/15 02:56:19;;;;;;;22.95;11.00;;;;;;;6.13;48.57;94406.19;5004084;28;20504;-77
2021/11/15 02:58:45;;;;;;;28.13;13.43;;;;;;;5.98;48.87;94389.34;5004512;28;20172;-73
2021/11/15 03:01:14;;;;;;;25.02;13.68;;;;;;;6.10;48.65;94401.44;4999652;28;20133;-76
2021/11/15 03:03:40;;;;;;;32.75;13.90;;;;;;;5.98;48.81;94384.06;5005178;28;20446;-76
2021/11/15 03:06:05;;;;;;;31.35;14.90;;;;;;;6.13;48.70;94400.91;5003957;28;20566;-75
2021/11/15 03:08:32;;;;;;;29.98;13.32;;;;;;;6.02;48.42;94385.09;5004335;28;20038;-76
2021/11/15 03:11:02;;;;;;;28.23;15.20;;;;;;;5.98;48.23;94378.78;5007849;28;20042;-72
2021/11/15 03:13:42;;;;;;;27.88;14.90;;;;;;;5.97;48.37;94382.47;5007332;28;20570;-77
2021/11/15 03:16:08;;;;;;;36.60;17.27;;;;;;;6.05;48.65;94410.19;5010222;28;20037;-76
2021/11/15 03:18:36;;;;;;;40.53;19.25;;;;;;;6.07;48.72;94402.00;5005560;28;20041;-77
2021/11/15 03:21:09;;;;;;;46.95;20.23;;;;;;;5.94;48.79;94377.75;5003710;28;20033;-76
2021/11/15 03:23:38;;;;;;;39.30;18.80;;;;;;;6.10;48.71;94409.38;5010574;28;20037;-76
2021/11/15 03:26:04;;;;;;;32.90;16.05;;;;;;;6.07;48.54;94407.28;5009589;28;20067;-76
2021/11/15 03:28:35;;;;;;;31.08;13.98;;;;;;;6.02;48.39;94400.94;5003960;28;20060;-76
2021/11/15 03:31:04;;;;;;;23.15;12.00;;;;;;;6.06;48.46;94410.97;5007526;28;20676;-76
2021/11/15 03:33:31;;;;;;;21.92;11.60;;;;;;;6.09;48.30;94410.41;5010068;28;20041;-75
2021/11/15 03:35:57;;;;;;;23.60;13.18;;;;;;;5.92;48.46;94389.63;5005262;28;20125;-75
2021/11/15 03:38:23;;;;;;;25.60;12.07;;;;;;;5.99;48.65;94401.47;5006878;28;20087;-76
2021/11/15 03:40:48;;;;;;;28.25;13.35;;;;;;;6.04;48.73;94403.31;5004577;28;20676;-75
2021/11/15 03:43:14;;;;;;;27.05;13.07;;;;;;;6.02;48.80;94396.72;5010893;28;20033;-76
2021/11/15 03:45:40;;;;;;;29.02;14.65;;;;;;;5.70;48.69;94349.56;5006930;28;20912;-77
2021/11/15 03:48:07;;;;;;;28.08;14.05;;;;;;;6.05;48.53;94404.91;5006670;28;20127;-76
2021/11/15 03:50:33;;;;;;;23.65;12.73;;;;;;;6.05;48.51;94410.19;5006481;28;20111;-76
2021/11/15 03:53:00;;;;;;;26.77;11.90;;;;;;;5.91;48.39;94388.84;5005690;28;20512;-74
2021/11/15 03:55:26;;;;;;;24.95;13.43;;;;;;;6.06;48.16;94395.91;5003744;28;20036;-76
2021/11/15 03:57:52;;;;;;;24.15;11.82;;;;;;;6.08;48.17;94403.56;5001618;28;20400;-76
2021/11/15 04:00:23;;;;;;;25.88;12.45;;;;;;;5.99;48.23;94395.41;5007479;28;20045;-77
2021/11/15 04:02:53;;;;;;;20.25;9.98;;;;;;;5.86;48.40;94375.66;5004933;28;20049;-75
2021/11/15 04:05:32;;;;;;;22.52;12.18;;;;;;;6.08;48.15;94398.28;5006844;28;20041;-73
2021/11/15 04:08:00;;;;;;;21.63;10.88;;;;;;;5.99;48.24;94390.13;5002805;28;20116;-76
2021/11/15 04:10:38;;;;;;;23.23;12.32;;;;;;;6.23;47.26;94395.59;5002967;28;20044;-76
2021/11/15 04:13:10;;;;;;;28.85;12.77;;;;;;;6.10;47.32;94380.31;5008478;28;20135;-76
2021/11/15 04:15:36;;;;;;;30.02;14.13;;;;;;;6.07;47.85;94397.47;5004465;28;20056;-75
2021/11/15 04:18:04;;;;;;;33.60;16.40;;;;;;;5.86;48.32;94396.78;5003368;28;20065;-75
2021/11/15 04:20:31;;;;;;;25.98;12.73;;;;;;;5.75;48.57;94374.09;5002850;28;20444;-76
2021/11/15 04:22:56;;;;;;;29.02;13.50;;;;;;;5.93;48.52;94401.75;5009573;28;20523;-76
2021/11/15 04:25:22;;;;;;;26.83;13.98;;;;;;;5.84;48.44;94393.59;5004157;28;20034;-75
2021/11/15 04:27:48;;;;;;;31.17;14.07;;;;;;;5.53;48.47;94348.03;5002427;28;20068;-76
2021/11/15 04:30:14;;;;;;;23.90;12.77;;;;;;;5.91;48.65;94402.03;5002133;28;20048;-76
2021/11/15 04:32:44;;;;;;;28.92;13.45;;;;;;;5.90;48.86;94408.38;5001078;28;20033;-76
2021/11/15 04:35:12;;;;;;;22.63;12.68;;;;;;;5.90;48.79;94403.09;5006829;28;20041;-76
2021/11/15 04:37:39;;;;;;;21.40;10.65;;;;;;;5.85;48.74;94395.19;5003627;28;20030;-75
2021/11/15 04:40:06;;;;;;;21.77;10.43;;;;;;;5.90;48.46;94400.47;5007389;28;20048;-76
2021/11/15 04:42:32;;;;;;;21.23;11.52;;;;;;;5.89;48.61;94411.28;5001721;28;20029;-75
2021/11/15 04:44:57;;;;;;;22.40;11.57;;;;;;;5.81;48.56;94393.38;5007916;28;20034;-75
2021/11/15 04:47:22;;;;;;;19.52;11.15;;;;;;;5.83;48.64;94392.03;5005498;28;20076;-75
2021/11/15 04:49:48;;;;;;;23.05;11.10;;;;;;;5.91;48.42;94412.59;5005952;28;20045;-75
2021/11/15 04:52:13;;;;;;;24.08;12.07;;;;;;;5.87;48.50;94423.97;5001836;28;20938;-75
2021/11/15 04:54:39;;;;;;;22.02;11.18;;;;;;;5.77;48.30;94385.19;5004188;28;20037;-75
2021/11/15 04:57:05;;;;;;;22.25;12.15;;;;;;;5.86;48.50;94412.63;5006714;28;20519;-75
2021/11/15 04:59:30;;;;;;;25.25;11.77;;;;;;;5.74;48.53;94400.75;5008953;28;20036;-75
2021/11/15 05:01:56;;;;;;;23.77;13.05;;;;;;;5.74;48.63;94398.13;5004366;28;20087;-77
2021/11/15 05:04:23;;;;;;;25.70;14.73;;;;;;;5.59;48.93;94367.28;5021719;28;20117;-75
2021/11/15 05:06:49;;;;;;;21.15;12.30;;;;;;;5.85;48.86;94416.31;5018221;28;20048;-73
2021/11/15 05:09:16;;;;;;;22.13;10.98;;;;;;;5.92;48.78;94431.88;5005898;28;20042;-76
2021/11/15 05:11:41;;;;;;;19.98;10.27;;;;;;;5.74;48.87;94408.69;5004379;28;20052;-76
2021/11/15 05:14:06;;;;;;;18.88;11.25;;;;;;;5.86;48.65;94431.09;5002870;28;20069;-75
2021/11/15 05:16:33;;;;;;;20.98;11.75;;;;;;;5.78;48.76;94439.53;4997755;28;20148;-77
2021/11/15 05:19:00;;;;;;;26.02;13.18;;;;;;;5.68;49.25;94436.94;5002916;28;20545;-76
2021/11/15 05:21:26;;;;;;;21.48;11.63;;;;;;;5.53;49.17;94418.47;4999474;28;20037;-76
2021/11/15 05:23:53;;;;;;;21.27;12.32;;;;;;;5.62;49.26;94427.47;5002997;28;20130;-74
2021/11/15 05:26:20;;;;;;;24.92;13.95;;;;;;;5.39;49.12;94391.06;5006776;28;20583;-75
2021/11/15 05:28:46;;;;;;;27.20;13.65;;;;;;;5.72;49.35;94442.47;5002419;28;20095;-76
2021/11/15 05:31:11;;;;;;;26.63;14.52;;;;;;;5.71;49.53;94446.19;4999941;28;20571;-73
2021/11/15 05:33:37;;;;;;;30.13;16.90;;;;;;;5.56;49.55;94429.31;5006287;28;20412;-75
2021/11/15 05:36:03;;;;;;;32.35;15.98;;;;;;;5.72;49.62;94443.28;5004949;28;20720;-75
2021/11/15 05:38:28;;;;;;;31.80;16.38;;;;;;;5.68;49.87;94444.84;5001910;28;20412;-74
2021/11/15 05:40:54;;;;;;;31.50;13.93;;;;;;;5.72;49.98;94451.19;5003677;28;20045;-76
2021/11/15 05:43:19;;;;;;;31.05;14.63;;;;;;;5.69;50.04;94443.78;5003058;28;20025;-76
2021/11/15 05:45:45;;;;;;;24.83;14.07;;;;;;;5.70;49.65;94440.09;5001979;28;20393;-73
2021/11/15 05:48:10;;;;;;;23.98;13.77;;;;;;;5.87;49.86;94460.94;5002234;28;20033;-75
2021/11/15 05:50:37;;;;;;;29.58;14.02;;;;;;;5.79;49.58;94456.19;4999188;28;20042;-77
2021/11/15 05:53:02;;;;;;;29.05;13.05;;;;;;;5.97;49.20;94472.25;5006576;28;20043;-77
2021/11/15 05:55:28;;;;;;;21.67;12.80;;;;;;;6.13;48.70;94477.47;5002700;28;20672;-73
2021/11/15 05:57:54;;;;;;;17.25;9.95;;;;;;;5.94;49.17;94467.50;5001587;28;20053;-75
2021/11/15 06:00:24;;;;;;;20.52;11.30;;;;;;;5.83;49.46;94463.28;5010928;28;20759;-75
2021/11/15 06:02:51;;;;;;;23.20;11.48;;;;;;;5.83;49.49;94460.66;5003343;28;20580;-77
2021/11/15 06:05:17;;;;;;;22.02;11.32;;;;;;;5.85;49.36;94463.84;4999670;28;20046;-76
2021/11/15 06:07:42;;;;;;;25.65;14.23;;;;;;;6.02;49.64;94472.22;5001040;28;20083;-76
2021/11/15 06:10:08;;;;;;;28.08;14.20;;;;;;;5.93;49.84;94447.44;5008586;28;20404;-76
2021/11/15 06:12:35;;;;;;;32.22;16.20;;;;;;;6.00;49.46;94461.16;5000814;28;25592;-76
2021/11/15 06:15:01;;;;;;;31.48;17.40;;;;;;;6.23;49.18;94485.41;5004423;28;20052;-76
2021/11/15 06:17:26;;;;;;;32.83;17.42;;;;;;;6.28;49.83;94488.03;5006789;28;20144;-77
2021/11/15 06:19:52;;;;;;;30.55;17.50;;;;;;;6.35;49.80;94480.63;5005205;28;20080;-76
2021/11/15 06:22:17;;;;;;;33.97;17.90;;;;;;;6.22;49.78;94457.41;5004241;28;20021;-76
2021/11/15 06:24:47;;;;;;;33.97;18.05;;;;;;;6.40;50.00;94477.97;5003472;28;20029;-76
2021/11/15 06:27:14;;;;;;;39.30;18.77;;;;;;;6.46;50.09;94478.75;5008176;28;20037;-76
2021/11/15 06:29:40;;;;;;;42.95;19.55;;;;;;;6.47;50.31;94486.38;4999017;28;20041;-73
2021/11/15 06:32:06;;;;;;;40.47;20.50;;;;;;;6.41;50.43;94469.75;5008992;28;20482;-76
2021/11/15 06:34:31;;;;;;;42.88;20.60;;;;;;;6.47;50.92;94480.31;5004289;28;20392;-77
2021/11/15 06:36:57;;;;;;;33.17;17.55;;;;;;;6.51;50.63;94492.69;5002696;28;20402;-76
2021/11/15 06:39:25;;;;;;;35.15;18.77;;;;;;;6.55;50.87;94493.75;5002154;28;20040;-77
2021/11/15 06:41:53;;;;;;;39.38;18.20;;;;;;;6.54;50.92;94486.09;5002974;28;20061;-77
2021/11/15 06:44:18;;;;;;;31.33;18.95;;;;;;;6.43;50.93;94466.84;4996922;28;20475;-76
2021/11/15 06:46:43;;;;;;;35.67;20.40;;;;;;;6.74;50.50;94497.38;5008128;28;20037;-76
2021/11/15 06:49:09;;;;;;;42.03;20.77;;;;;;;6.77;50.49;94480.97;5006829;28;20057;-75
2021/11/15 06:51:34;;;;;;;45.88;22.63;;;;;;;6.94;50.39;94485.09;5006461;28;20063;-73
2021/11/15 06:54:00;;;;;;;38.90;19.92;;;;;;;6.23;52.39;94480.13;5011724;28;20038;-76
2021/11/15 06:56:25;;;;;;;39.42;21.08;;;;;;;5.73;53.66;94455.41;5008189;28;20400;-76
2021/11/15 06:58:50;;;;;;;36.15;18.02;;;;;;;5.39;56.00;94496.59;5005344;28;20041;-77
2021/11/15 07:01:16;;;;;;;35.55;18.70;;;;;;;5.32;56.82;94491.59;5009580;28;20021;-76
2021/11/15 07:03:43;;;;;;;33.25;17.63;;;;;;;5.26;57.92;94492.63;5004746;28;20792;-76
2021/11/15 07:06:08;;;;;;;28.38;13.60;;;;;;;5.09;59.65;94492.88;5007483;28;20080;-76
2021/11/15 07:08:34;;;;;;;31.58;16.20;;;;;;;5.10;60.16;94491.81;5002143;28;20512;-76
2021/11/15 07:11:00;;;;;;;33.53;14.80;;;;;;;4.65;63.09;94497.78;5006442;28;20673;-75
2021/11/15 07:13:25;;;;;;;33.97;15.27;;;;;;;4.51;64.47;94485.34;5007260;28;20048;-75
2021/11/15 07:15:51;;;;;;;26.40;16.00;;;;;;;4.36;66.17;94487.91;5006210;28;20041;-75
2021/11/15 07:18:17;;;;;;;30.85;17.65;;;;;;;4.24;67.56;94496.03;4998650;28;20652;-73
2021/11/15 07:20:43;;;;;;;28.92;16.58;;;;;;;4.34;68.07;94490.03;5005150;28;20037;-77
2021/11/15 07:23:09;;;;;;;31.52;15.70;;;;;;;4.36;68.37;94491.34;5003366;28;20932;-74
2021/11/15 07:25:35;;;;;;;27.65;15.35;;;;;;;4.12;69.52;94469.09;4998462;28;20683;-76
2021/11/15 07:28:01;;;;;;;30.23;16.63;;;;;;;4.12;69.52;94469.91;5003365;28;20036;-75
2021/11/15 07:30:26;;;;;;;31.30;16.58;;;;;;;4.24;69.75;94490.75;5009774;28;20046;-76
2021/11/15 07:32:52;;;;;;;34.30;17.42;;;;;;;4.13;69.98;94457.53;5001814;28;20134;-75
2021/11/15 07:35:19;;;;;;;30.90;16.98;;;;;;;4.35;69.61;94486.38;5003320;28;20048;-76
2021/11/15 07:37:44;;;;;;;24.73;15.40;;;;;;;4.52;69.76;94503.53;5002466;28;20032;-72
2021/11/15 07:40:13;;;;;;;27.70;14.68;;;;;;;4.53;69.89;94493.78;5002538;28;20082;-75
2021/11/15 07:42:38;;;;;;;29.30;15.32;;;;;;;4.38;70.13;94473.47;5005352;28;20116;-76
2021/11/15 07:45:05;;;;;;;33.15;16.40;;;;;;;4.44;70.41;94474.28;5005059;28;20056;-75
2021/11/15 07:47:33;;;;;;;31.52;14.73;;;;;;;4.62;70.60;94492.25;5002602;28;20694;-75
2021/11/15 07:50:06;;;;;;;33.70;18.70;;;;;;;4.55;71.70;94487.22;5002216;28;20484;-73
2021/11/15 07:52:32;;;;;;;31.05;16.58;;;;;;;4.54;71.39;94461.13;5004934;28;20038;-74
2021/11/15 07:55:01;;;;;;;35.78;19.45;;;;;;;4.80;71.91;94494.41;5018743;28;20030;-77
2021/11/15 07:57:27;;;;;;;46.92;21.63;;;;;;;4.82;72.00;94497.56;5004022;28;20038;-77
2021/11/15 07:59:53;;;;;;;40.85;21.00;;;;;;;4.72;72.40;94492.28;5005912;28;20049;-77
2021/11/15 08:02:18;;;;;;;37.05;20.00;;;;;;;4.73;72.11;94493.88;4996065;28;20478;-76
2021/11/15 08:04:45;;;;;;;33.17;17.98;;;;;;;4.77;71.93;94491.50;5006347;28;20037;-76
2021/11/15 08:07:11;;;;;;;36.92;18.33;;;;;;;4.62;71.66;94455.34;5003044;28;20080;-75
2021/11/15 08:09:37;;;;;;;39.30;18.52;;;;;;;4.98;71.32;94490.50;5002624;28;20578;-76
2021/11/15 08:12:06;;;;;;;33.97;19.83;;;;;;;4.93;70.07;94467.56;5003145;28;20056;-77
2021/11/15 08:14:39;;;;;;;39.65;20.38;;;;;;;5.00;70.37;94468.06;5005450;28;20060;-76
2021/11/15 08:17:05;;;;;;;34.53;17.83;;;;;;;5.22;69.53;94482.88;5005381;28;20041;-77
2021/11/15 08:19:30;;;;;;;29.42;16.38;;;;;;;5.12;68.68;94457.28;5003346;28;20444;-76
2021/11/15 08:21:58;;;;;;;29.88;16.67;;;;;;;5.29;68.39;94459.66;5017615;28;20129;-74
2021/11/15 08:24:48;;;;;;;33.35;18.63;;;;;;;5.47;68.37;94482.88;5021043;28;20044;-76
2021/11/15 08:27:14;;;;;;;31.70;17.92;;;;;;;5.44;67.81;94454.38;5004370;28;20041;-77
2021/11/15 08:29:43;;;;;;;40.08;18.25;;;;;;;5.56;67.24;94471.53;5002944;28;20043;-77
2021/11/15 08:32:09;;;;;;;33.63;15.27;;;;;;;5.63;66.54;94455.41;5002541;28;20042;-77
2021/11/15 08:34:36;;;;;;;30.83;17.35;;;;;;;5.91;65.91;94486.53;5004785;28;20029;-77
2021/11/15 08:37:05;;;;;;;35.95;17.92;;;;;;;5.84;66.03;94485.22;5004613;28;20400;-76
2021/11/15 08:39:32;;;;;;;32.15;15.05;;;;;;;5.78;65.27;94479.13;5004045;28;20116;-76
2021/11/15 08:42:01;;;;;;;27.58;14.85;;;;;;;6.15;64.63;94486.75;5003367;28;20033;-77
2021/11/15 08:44:27;;;;;;;28.52;16.27;;;;;;;6.21;63.53;94474.34;5001952;28;20096;-76
2021/11/15 08:46:55;;;;;;;29.05;15.48;;;;;;;6.10;63.39;94467.47;5003513;28;20546;-77
2021/11/15 08:49:23;;;;;;;25.63;14.20;;;;;;;6.11;62.54;94466.41;5003756;28;20034;-77
2021/11/15 08:51:49;;;;;;;26.83;15.02;;;;;;;6.35;63.21;94477.97;5002869;28;20041;-76
2021/11/15 08:54:17;;;;;;;26.40;14.95;;;;;;;6.38;62.76;94470.31;5006591;28;20092;-77
2021/11/15 08:56:45;;;;;;;20.00;12.30;;;;;;;6.44;62.01;94484.28;5002948;28;20528;-74
2021/11/15 08:59:11;;;;;;;29.27;14.98;;;;;;;5.95;61.92;94431.34;5007466;28;20761;-76
2021/11/15 09:01:37;;;;;;;25.17;12.73;;;;;;;6.27;61.27;94486.44;5017904;28;20025;-76
2021/11/15 09:04:03;;;;;;;21.98;11.45;;;;;;;6.23;60.41;94477.47;5000889;28;20036;-78
2021/11/15 09:06:34;;;;;;;20.38;11.15;;;;;;;6.45;59.86;94488.53;4992451;28;20033;-76
2021/11/15 09:09:00;;;;;;;24.17;15.05;;;;;;;6.30;61.75;94480.66;4998525;28;20033;-76
2021/11/15 09:11:25;;;;;;;21.38;11.55;;;;;;;6.52;60.26;94483.72;4999886;28;20642;-76
2021/11/15 09:13:52;;;;;;;32.47;14.48;;;;;;;6.62;60.80;94482.88;5017996;28;20049;-76
2021/11/15 09:16:17;;;;;;;29.73;15.88;;;;;;;6.73;61.60;94479.13;4998386;28;20029;-77
2021/11/15 09:18:44;;;;;;;18.95;12.20;;;;;;;6.72;59.10;94477.53;4998334;28;20041;-77
2021/11/15 09:21:10;;;;;;;22.30;13.20;;;;;;;6.78;58.63;94485.19;5000630;28;20041;-77
2021/11/15 09:23:41;;;;;;;24.00;12.77;;;;;;;6.98;58.39;94486.13;5003946;28;20168;-77
2021/11/15 09:26:09;;;;;;;20.20;10.63;;;;;;;6.80;58.12;94484.91;5000450;28;20826;-76
2021/11/15 09:28:35;;;;;;;21.73;10.38;;;;;;;6.96;57.37;94490.91;5004779;28;20041;-77
2021/11/15 09:31:01;;;;;;;17.27;10.15;;;;;;;6.49;58.04;94470.25;4997642;28;20092;-76
2021/11/15 09:33:27;;;;;;;19.38;11.32;;;;;;;6.54;57.92;94465.75;5005656;28;20053;-75
2021/11/15 09:35:55;;;;;;;18.60;10.48;;;;;;;6.83;57.99;94479.88;5004071;28;20041;-75
2021/11/15 09:38:22;;;;;;;17.40;9.43;;;;;;;6.69;57.58;94470.16;5001505;28;20697;-76
2021/11/15 09:40:52;;;;;;;22.48;11.48;;;;;;;6.99;57.16;94493.81;5001645;28;20557;-76
2021/11/15 09:43:17;;;;;;;15.55;9.25;;;;;;;6.98;57.07;94486.13;5004380;28;20043;-77
2021/11/15 09:45:44;;;;;;;19.33;10.32;;;;;;;7.10;56.82;94491.88;5004259;28;20034;-76
2021/11/15 09:48:10;;;;;;;18.98;10.88;;;;;;;6.95;56.44;94482.16;5002385;28;20033;-77
2021/11/15 09:50:37;;;;;;;19.27;9.55;;;;;;;6.82;56.50;94480.13;5001039;28;20263;-77
2021/11/15 09:53:05;;;;;;;15.63;8.88;;;;;;;7.05;56.32;94497.97;5002179;28;20629;-76
2021/11/15 09:55:32;;;;;;;19.25;10.70;;;;;;;7.07;56.43;94495.06;5003987;28;20058;-76
2021/11/15 09:57:58;;;;;;;19.75;10.82;;;;;;;7.01;56.52;94496.16;5004572;28;20267;-76
2021/11/15 10:00:25;;;;;;;18.65;9.48;;;;;;;6.74;56.56;94476.22;5000737;28;20029;-73
2021/11/15 10:02:52;;;;;;;17.02;9.73;;;;;;;6.95;56.34;94487.47;5002017;28;20040;-77
2021/11/15 10:05:18;;;;;;;20.48;9.73;;;;;;;7.03;56.17;94483.47;5001860;28;20096;-77
2021/11/15 10:07:48;;;;;;;16.40;10.45;;;;;;;7.05;55.86;94486.59;4999377;28;20726;-73
2021/11/15 10:10:34;;;;;;;17.65;10.10;;;;;;;7.08;56.02;94492.16;5005139;28;20104;-76
2021/11/15 10:13:04;;;;;;;19.55;11.00;;;;;;;7.11;56.01;94498.75;5003754;28;20053;-77
2021/11/15 10:15:43;;;;;;;19.55;10.07;;;;;;;6.82;56.15;94474.84;5001195;28;20045;-77
2021/11/15 10:18:12;;;;;;;18.40;9.43;;;;;;;6.83;55.70;94473.78;5003887;28;20396;-76
2021/11/15 10:20:50;;;;;;;18.23;9.77;;;;;;;7.17;55.72;94502.94;4997738;28;20029;-77
2021/11/15 10:23:36;;;;;;;16.60;10.25;;;;;;;7.14;55.15;94500.84;4998020;28;20069;-76
2021/11/15 10:26:23;;;;;;;16.92;10.40;;;;;;;7.14;55.33;94480.47;5002107;28;20107;-76
2021/11/15 10:29:02;;;;;;;16.33;10.48;;;;;;;7.15;55.20;94502.41;5001954;28;20040;-76
2021/11/15 10:31:37;;;;;;;16.23;10.25;;;;;;;6.95;56.15;94481.38;5004418;28;20144;-75
2021/11/15 10:34:06;;;;;;;19.92;11.32;;;;;;;6.95;56.00;94497.25;5003705;28;20354;-77
2021/11/15 10:37:14;;;;;;;17.45;9.00;;;;;;;7.15;55.53;94489.19;5007398;28;20042;-77
2021/11/15 10:39:45;;;;;;;15.55;9.00;;;;;;;7.09;55.26;94493.72;4986826;28;20120;-74
2021/11/15 10:42:17;;;;;;;15.48;10.15;;;;;;;7.23;54.96;94489.41;5002373;28;20057;-76
2021/11/15 10:44:48;;;;;;;17.85;9.80;;;;;;;7.19;54.96;94467.19;5012856;28;20042;-74
2021/11/15 10:47:15;;;;;;;16.30;8.68;;;;;;;7.50;54.45;94494.22;5002945;28;20159;-76
2021/11/15 10:49:42;;;;;;;19.17;10.10;;;;;;;7.34;53.60;94495.41;4999325;28;20124;-76
2021/11/15 10:52:14;;;;;;;12.95;8.82;;;;;;;7.18;53.55;94439.19;4999826;28;20501;-75
2021/11/15 10:57:32;;;;;;;18.63;11.02;;;;;;;7.46;53.60;94493.22;5002702;28;20049;-75
2021/11/15 11:00:07;;;;;;;16.17;9.38;;;;;;;7.38;54.13;94490.38;5003134;28;20034;-76
2021/11/15 11:02:51;;;;;;;19.77;9.55;;;;;;;7.35;53.61;94480.31;5002761;28;20065;-75
2021/11/15 11:05:20;;;;;;;17.38;10.20;;;;;;;7.41;53.62;94479.22;4999789;28;20734;-76
2021/11/15 11:07:48;;;;;;;16.67;9.00;;;;;;;7.53;53.15;94493.66;5000939;28;20030;-77
2021/11/15 11:10:21;;;;;;;20.70;10.40;;;;;;;7.47;53.64;94488.72;5001143;28;20026;-77
2021/11/15 11:12:56;;;;;;;17.70;9.07;;;;;;;7.12;54.01;94458.78;5004687;28;20223;-76
2021/11/15 11:15:46;;;;;;;18.10;10.75;;;;;;;7.44;53.86;94491.88;4999159;28;20050;-76
2021/11/15 11:19:15;;;;;;;13.90;8.80;;;;;;;7.29;53.53;94485.66;4999583;28;20579;-76
2021/11/15 11:24:13;;;;;;;18.92;9.90;;;;;;;7.34;53.68;94484.81;5001623;28;20053;-76
2021/11/15 11:26:43;;;;;;;16.75;9.30;;;;;;;7.41;53.56;94481.88;4998784;28;20042;-75
2021/11/15 11:29:19;;;;;;;16.90;9.57;;;;;;;7.45;53.35;94473.09;5005489;28;20042;-76
2021/11/15 11:31:48;;;;;;;14.95;10.02;;;;;;;7.40;53.66;94486.38;5002756;28;20041;-77
2021/11/15 11:34:15;;;;;;;14.93;9.45;;;;;;;7.44;53.57;94479.44;5012548;28;20511;-76